Time;durP1;ratioP1;P1;durP2;ratioP2;P2;SDS_P1;SDS_P2;PMS_P1;PMS_P2;Temp;Humidity;BMP_temperature;BMP_pressure;BME280_temperature;BME280_humidity;BME280_pressure;Samples;Min_cycle;Max_cycle;Signal;HPM_P1;HPM_P2
2022/07/24 00:01:03;;;;;;;10.90;8.02;;;24.10;55.10;;;24.36;46.98;97946.31;5006036;28;20049;-54
2022/07/24 00:03:31;;;;;;;8.20;7.40;;;24.10;55.00;;;24.40;46.91;97948.53;5007123;28;20061;-55
2022/07/24 00:06:00;;;;;;;9.75;8.02;;;24.10;55.00;;;24.41;46.68;97947.47;5006564;28;20225;-58
2022/07/24 00:08:29;;;;;;;8.65;7.47;;;24.20;54.80;;;24.40;46.71;97945.81;5007820;28;20065;-57
2022/07/24 00:10:57;;;;;;;8.55;7.65;;;24.10;54.50;;;24.43;46.60;97945.31;5006604;28;20056;-56
2022/07/24 00:13:25;;;;;;;8.52;7.60;;;24.20;54.40;;;24.43;46.43;97943.44;5007100;28;20053;-58
2022/07/24 00:15:53;;;;;;;8.48;7.72;;;24.20;54.10;;;24.45;45.99;97954.09;5006894;28;20054;-55
2022/07/24 00:18:21;;;;;;;9.07;8.18;;;24.20;53.70;;;24.45;46.31;97954.91;5005317;28;20053;-57
2022/07/24 00:20:49;;;;;;;8.85;8.02;;;24.30;54.00;;;24.46;45.93;97945.66;5007428;28;20053;-57
2022/07/24 00:23:17;;;;;;;7.88;7.07;;;24.20;53.50;;;24.43;46.00;97948.03;5006634;28;20045;-57
2022/07/24 00:25:44;;;;;;;8.73;7.50;;;24.20;53.50;;;24.42;46.05;97946.41;5007628;28;20050;-58
2022/07/24 00:28:12;;;;;;;9.43;7.15;;;24.10;53.70;;;24.41;46.04;97947.47;5008988;28;20447;-57
2022/07/24 00:30:40;;;;;;;8.50;7.38;;;24.10;53.70;;;24.39;46.17;97950.44;5009690;28;20049;-57
2022/07/24 00:33:08;;;;;;;9.27;7.97;;;24.10;53.80;;;24.36;46.27;97945.47;5009856;28;20049;-58
2022/07/24 00:35:36;;;;;;;7.60;6.85;;;24.10;54.10;;;24.33;46.33;97943.22;5011030;28;20057;-57
2022/07/24 00:38:04;;;;;;;8.82;8.02;;;24.10;54.20;;;24.29;46.70;97944.78;5009733;28;20041;-58
2022/07/24 00:40:32;;;;;;;8.32;7.53;;;24.00;54.50;;;24.24;46.97;97947.44;5011130;28;20041;-58
2022/07/24 00:43:01;;;;;;;7.97;7.00;;;23.90;55.00;;;24.18;46.91;97954.66;5010061;28;20049;-58
2022/07/24 00:45:30;;;;;;;9.55;7.63;;;23.80;55.20;;;24.11;47.28;97949.34;5009664;28;20113;-57
2022/07/24 00:47:58;;;;;;;8.63;7.75;;;23.80;55.60;;;24.08;47.08;97947.13;5010730;28;20057;-58
2022/07/24 00:50:26;;;;;;;8.93;8.00;;;23.70;55.50;;;24.04;47.16;97954.13;5010029;28;20068;-58
2022/07/24 00:52:56;;;;;;;8.07;7.30;;;23.70;55.70;;;23.97;47.57;97950.69;5010161;28;20050;-58
2022/07/24 00:55:24;;;;;;;7.78;6.80;;;23.60;56.20;;;23.93;47.61;97952.25;5009900;28;20366;-57
2022/07/24 00:57:52;;;;;;;7.60;6.85;;;23.60;56.20;;;23.90;47.40;97950.00;5008813;28;20060;-56
2022/07/24 01:00:21;;;;;;;8.60;7.78;;;23.60;56.00;;;23.85;47.68;97948.00;5007766;28;20431;-56
2022/07/24 01:02:50;;;;;;;11.40;7.80;;;23.50;56.30;;;23.81;47.86;97951.41;5010035;28;20506;-58
2022/07/24 01:05:19;;;;;;;8.63;7.35;;;23.40;56.40;;;23.77;47.95;97948.34;5007668;28;20053;-58
2022/07/24 01:07:47;;;;;;;8.80;8.00;;;23.40;56.80;;;23.69;48.39;97949.53;5010566;28;20068;-56
2022/07/24 01:10:16;;;;;;;8.48;7.55;;;23.20;57.10;;;23.64;48.32;97954.03;5009673;28;20060;-58
2022/07/24 01:12:44;;;;;;;8.52;7.47;;;23.20;57.30;;;23.57;48.42;97951.44;5009732;28;20237;-57
2022/07/24 01:15:12;;;;;;;8.35;7.55;;;23.10;57.50;;;23.55;48.43;97945.41;5009376;28;20060;-58
2022/07/24 01:17:41;;;;;;;7.93;7.22;;;23.10;57.50;;;23.50;48.61;97948.03;5010140;28;20049;-58
2022/07/24 01:20:11;;;;;;;8.90;8.00;;;23.10;57.90;;;23.45;48.64;97943.28;5009000;28;20042;-57
2022/07/24 01:22:39;;;;;;;8.30;7.50;;;23.10;57.90;;;23.41;48.75;97939.38;5008028;28;20440;-58
2022/07/24 01:25:07;;;;;;;9.80;8.80;;;23.00;57.80;;;23.40;48.72;97951.34;5007569;28;20069;-58
2022/07/24 01:27:35;;;;;;;9.90;7.50;;;23.00;57.70;;;23.34;48.74;97944.09;5010287;28;20204;-58
2022/07/24 01:30:04;;;;;;;8.75;7.90;;;23.00;57.70;;;23.30;48.81;97943.78;5009739;28;20493;-58
2022/07/24 01:32:32;;;;;;;7.53;6.85;;;22.90;57.70;;;23.27;48.56;97938.81;5009112;28;20068;-56
2022/07/24 01:35:00;;;;;;;8.20;7.50;;;22.90;57.80;;;23.27;49.06;97938.00;5009668;28;20060;-57
2022/07/24 01:37:28;;;;;;;8.18;7.30;;;22.90;57.80;;;23.24;48.73;97941.97;5009152;28;20054;-58
2022/07/24 01:39:56;;;;;;;9.02;8.23;;;22.80;57.60;;;23.17;48.54;97939.41;5009964;28;20056;-57
2022/07/24 01:42:25;;;;;;;11.10;8.50;;;22.70;57.90;;;23.14;48.79;97939.03;5008560;28;20052;-58
2022/07/24 01:44:53;;;;;;;9.27;8.23;;;22.70;58.10;;;23.09;49.14;97945.19;5010509;28;20045;-58
2022/07/24 01:47:21;;;;;;;8.60;7.50;;;22.70;58.30;;;23.07;49.34;97943.75;5009294;28;20046;-58
2022/07/24 01:49:48;;;;;;;8.07;7.28;;;22.60;58.40;;;23.00;49.34;97933.78;5007785;28;20042;-58
2022/07/24 01:52:16;;;;;;;8.93;8.00;;;22.60;58.40;;;23.02;48.96;97939.00;5008929;28;20052;-57
2022/07/24 01:54:44;;;;;;;8.63;7.72;;;22.60;58.10;;;22.98;49.15;97926.94;5008752;28;20125;-58
2022/07/24 01:57:12;;;;;;;7.68;6.97;;;22.60;58.20;;;22.94;49.41;97933.91;5008358;28;20042;-58
2022/07/24 01:59:45;;;;;;;9.10;8.10;;;22.60;58.20;;;22.90;49.14;97935.44;5009731;28;20045;-58
2022/07/24 02:02:14;;;;;;;9.13;8.23;;;22.50;58.30;;;22.88;49.18;97938.38;5008242;28;20056;-59
2022/07/24 02:04:42;;;;;;;8.45;7.65;;;22.50;58.40;;;22.87;48.96;97935.91;5009199;28;20052;-59
2022/07/24 02:07:10;;;;;;;9.00;8.13;;;22.50;58.30;;;22.80;49.33;97928.69;5008775;28;20364;-58
2022/07/24 02:09:38;;;;;;;8.50;7.70;;;22.40;58.60;;;22.75;49.42;97925.03;5009101;28;20352;-58
2022/07/24 02:12:06;;;;;;;8.07;7.13;;;22.30;58.90;;;22.73;49.82;97929.84;5007484;28;20249;-59
2022/07/24 02:14:34;;;;;;;8.75;7.95;;;22.30;59.00;;;22.64;49.92;97934.78;5008493;28;20046;-58
2022/07/24 02:17:02;;;;;;;7.85;7.05;;;22.20;59.20;;;22.62;50.02;97934.19;5007912;28;20247;-59
2022/07/24 02:19:31;;;;;;;7.68;6.82;;;22.20;59.30;;;22.60;49.80;97928.16;5008800;28;20064;-59
2022/07/24 02:21:59;;;;;;;8.10;7.30;;;22.20;59.30;;;22.55;49.93;97930.75;5039818;28;20046;-58
2022/07/24 02:24:27;;;;;;;8.23;7.22;;;22.10;59.60;;;22.48;50.56;97933.56;5008592;28;20632;-59
2022/07/24 02:26:55;;;;;;;8.88;7.28;;;22.00;60.10;;;22.42;50.39;97929.06;5007892;28;20064;-59
2022/07/24 02:29:29;;;;;;;8.57;7.68;;;22.00;60.60;;;22.40;50.62;97925.75;5008031;28;20380;-59
2022/07/24 02:31:59;;;;;;;8.77;7.82;;;21.90;60.30;;;22.40;50.55;97936.59;5008692;28;20081;-59
2022/07/24 02:34:27;;;;;;;9.52;7.30;;;22.00;60.10;;;22.37;50.15;97932.47;5009131;28;20273;-59
2022/07/24 02:36:55;;;;;;;9.60;8.52;;;21.90;60.00;;;22.34;50.11;97929.38;5008133;28;20056;-59
2022/07/24 02:39:22;;;;;;;9.30;7.85;;;21.90;59.90;;;22.35;50.50;97929.16;5006910;28;20068;-59
2022/07/24 02:41:50;;;;;;;9.75;8.25;;;22.00;59.80;;;22.33;50.68;97925.84;5007972;28;20046;-58
2022/07/24 02:44:18;;;;;;;8.65;7.60;;;22.00;59.90;;;22.32;50.24;97932.31;5007618;28;20267;-57
2022/07/24 02:46:46;;;;;;;8.82;7.93;;;21.90;60.10;;;22.32;50.55;97934.22;5007248;28;20046;-58
2022/07/24 02:49:14;;;;;;;8.57;7.65;;;21.90;60.20;;;22.29;50.64;97932.75;5006505;28;20057;-59
2022/07/24 02:51:42;;;;;;;8.77;7.20;;;21.90;60.20;;;22.27;50.53;97934.88;5006560;28;20053;-58
2022/07/24 02:54:11;;;;;;;8.05;7.28;;;21.90;60.30;;;22.26;50.67;97930.53;5009055;28;20058;-59
2022/07/24 02:56:39;;;;;;;9.20;8.35;;;21.90;60.30;;;22.23;50.42;97936.38;5007406;28;20041;-58
2022/07/24 02:59:07;;;;;;;10.02;7.00;;;21.80;60.20;;;22.21;50.54;97933.06;5008185;28;20052;-59
2022/07/24 03:01:35;;;;;;;8.68;7.07;;;21.80;60.40;;;22.20;50.97;97934.13;5007557;28;20209;-59
2022/07/24 03:04:03;;;;;;;10.30;9.27;;;21.80;60.80;;;22.17;51.33;97932.69;5007118;28;20438;-59
2022/07/24 03:06:32;;;;;;;8.00;7.28;;;21.70;61.10;;;22.12;50.94;97935.28;5007005;28;20077;-58
2022/07/24 03:08:59;;;;;;;9.20;8.25;;;21.70;61.20;;;22.09;51.08;97927.59;5008298;28;20352;-59
2022/07/24 03:11:28;;;;;;;9.13;7.10;;;21.70;61.10;;;22.07;51.08;97935.13;5007983;28;20065;-59
2022/07/24 03:13:55;;;;;;;7.43;6.68;;;21.60;60.80;;;22.02;51.06;97926.84;5006077;28;20059;-59
2022/07/24 03:16:23;;;;;;;9.90;8.13;;;21.60;61.80;;;22.00;51.42;97928.94;5008181;28;20051;-59
2022/07/24 03:18:51;;;;;;;9.88;8.27;;;21.60;61.10;;;21.97;51.21;97929.44;5007508;28;20041;-59
2022/07/24 03:21:19;;;;;;;8.10;7.30;;;21.50;61.30;;;21.96;51.59;97919.63;5006933;28;20060;-59
2022/07/24 03:24:07;;;;;;;9.75;8.25;;;21.50;61.30;;;21.97;51.34;97929.44;5008354;28;20536;-58
2022/07/24 03:26:35;;;;;;;9.13;7.53;;;21.60;60.90;;;21.98;51.13;97931.06;5006542;28;20237;-57
2022/07/24 03:29:03;;;;;;;8.63;7.72;;;21.60;60.70;;;21.98;51.12;97931.91;5008219;28;20058;-58
2022/07/24 03:31:31;;;;;;;8.70;7.18;;;21.60;60.80;;;21.97;51.34;97940.25;5007603;28;20057;-59
2022/07/24 03:33:59;;;;;;;9.75;7.38;;;21.60;60.90;;;21.94;51.34;97946.94;5007087;28;20546;-59
2022/07/24 03:36:27;;;;;;;8.52;7.70;;;21.50;61.10;;;21.93;51.31;97939.88;5006963;28;20489;-58
2022/07/24 03:38:55;;;;;;;8.35;7.40;;;21.50;61.30;;;21.92;51.54;97937.41;5006198;28;20052;-58
2022/07/24 03:41:23;;;;;;;8.95;7.30;;;21.50;61.40;;;21.93;51.55;97942.59;5006994;28;20050;-59
2022/07/24 03:43:51;;;;;;;7.68;6.95;;;21.60;61.30;;;21.93;51.78;97939.06;5007119;28;20417;-59
2022/07/24 03:46:19;;;;;;;7.97;7.18;;;21.60;61.30;;;21.90;51.17;97940.31;5006987;28;20265;-59
2022/07/24 03:48:47;;;;;;;9.73;7.28;;;21.50;61.50;;;21.87;51.92;97938.09;5006755;28;20093;-59
2022/07/24 03:51:15;;;;;;;8.88;7.75;;;21.50;61.60;;;21.87;51.40;97942.66;5006452;28;20060;-59
2022/07/24 03:53:45;;;;;;;8.20;7.10;;;21.50;61.50;;;21.86;51.66;97935.59;5005370;28;20056;-59
2022/07/24 03:56:15;;;;;;;7.97;7.20;;;21.50;61.20;;;21.85;51.66;97936.63;5007555;28;20050;-59
2022/07/24 03:58:43;;;;;;;7.97;7.20;;;21.50;61.40;;;21.82;51.35;97937.94;5006379;28;20057;-60
2022/07/24 04:01:11;;;;;;;8.15;7.35;;;21.50;61.50;;;21.77;51.76;97952.16;5003490;28;20352;-59
2022/07/24 04:03:39;;;;;;;9.13;7.03;;;21.40;61.90;;;21.73;51.92;97950.97;5006865;28;20046;-59
2022/07/24 04:06:07;;;;;;;9.30;7.75;;;21.30;62.60;;;21.69;52.02;97952.44;5007035;28;20045;-59
2022/07/24 04:08:34;;;;;;;9.43;8.07;;;21.30;62.90;;;21.68;52.58;97952.69;5006889;28;20054;-59
2022/07/24 04:11:02;;;;;;;8.27;7.47;;;21.20;63.10;;;21.65;52.74;97951.25;5006759;28;20045;-59
2022/07/24 04:13:31;;;;;;;8.27;7.43;;;21.20;63.10;;;21.66;52.59;97960.22;5006134;28;20048;-59
2022/07/24 04:15:59;;;;;;;9.35;8.25;;;21.30;63.20;;;21.62;52.86;97959.84;5006701;28;20504;-59
2022/07/24 04:18:27;;;;;;;8.85;7.95;;;21.20;63.20;;;21.65;52.57;97961.25;5006411;28;20046;-59
2022/07/24 04:20:56;;;;;;;9.50;8.40;;;21.30;63.20;;;21.67;52.72;97964.56;5006538;28;20060;-59
2022/07/24 04:23:24;;;;;;;8.32;7.20;;;21.30;63.00;;;21.68;52.49;97972.47;5006367;28;20054;-59
2022/07/24 04:25:51;;;;;;;8.48;7.50;;;21.40;62.90;;;21.71;52.95;97979.31;5005450;28;20074;-58
2022/07/24 04:28:19;;;;;;;8.88;8.00;;;21.40;62.90;;;21.74;52.70;97971.56;5005895;28;20056;-59
2022/07/24 04:30:47;;;;;;;9.60;8.70;;;21.40;62.70;;;21.72;52.66;97973.69;5006591;28;20063;-60
2022/07/24 04:33:15;;;;;;;8.30;7.50;;;21.40;62.80;;;21.72;52.66;97973.69;5007600;28;20495;-59
2022/07/24 04:35:43;;;;;;;8.65;7.85;;;21.40;62.70;;;21.74;52.92;97973.47;5006709;28;20050;-59
2022/07/24 04:38:11;;;;;;;10.65;9.05;;;21.40;63.00;;;21.73;52.69;97978.06;5004230;28;20075;-59
2022/07/24 04:40:39;;;;;;;9.40;8.50;;;21.40;63.20;;;21.73;52.82;97975.34;5006571;28;20075;-59
2022/07/24 04:43:08;;;;;;;9.50;8.60;;;21.40;63.20;;;21.74;52.82;97968.88;5005997;28;20488;-59
2022/07/24 04:45:38;;;;;;;8.43;7.60;;;21.40;63.20;;;21.78;53.02;97980.91;5007779;28;20045;-59
2022/07/24 04:48:06;;;;;;;9.15;8.25;;;21.50;63.30;;;21.81;52.53;97976.94;5006720;28;20054;-59
2022/07/24 04:50:34;;;;;;;9.13;8.18;;;21.60;62.80;;;21.82;52.67;97978.56;5006742;28;20355;-57
2022/07/24 04:53:02;;;;;;;9.40;8.50;;;21.60;63.40;;;21.81;52.60;97976.94;5007602;28;20240;-58
2022/07/24 04:55:30;;;;;;;12.23;9.45;;;21.50;62.90;;;21.77;53.12;97964.88;5006885;28;20062;-59
2022/07/24 04:57:57;;;;;;;10.70;9.27;;;21.50;63.30;;;21.78;52.96;97972.78;5005824;28;20038;-59
2022/07/24 05:00:25;;;;;;;9.18;8.13;;;21.50;63.20;;;21.78;52.72;97980.09;5006315;28;20053;-59
2022/07/24 05:02:53;;;;;;;10.18;9.13;;;21.40;63.40;;;21.79;53.16;97976.31;5006151;28;20052;-59
2022/07/24 05:05:21;;;;;;;9.50;8.60;;;21.50;63.70;;;21.80;53.40;97978.78;5005782;28;20359;-59
2022/07/24 05:07:49;;;;;;;9.18;8.27;;;21.50;63.50;;;21.84;53.29;97976.47;5005898;28;20126;-59
2022/07/24 05:10:17;;;;;;;9.65;8.45;;;21.60;63.10;;;21.88;53.27;97976.84;5007042;28;20444;-59
2022/07/24 05:12:45;;;;;;;9.10;8.20;;;21.70;63.10;;;21.90;52.83;97989.13;5008739;28;20540;-59
2022/07/24 05:15:13;;;;;;;9.38;7.47;;;21.70;62.80;;;21.95;52.90;97983.03;5009790;28;20052;-59
2022/07/24 05:17:41;;;;;;;10.40;8.65;;;21.80;62.10;;;21.98;52.56;97987.97;5009199;28;20053;-57
2022/07/24 05:20:09;;;;;;;9.43;8.15;;;21.80;61.80;;;22.01;52.79;97982.13;5008348;28;20490;-57
2022/07/24 05:22:38;;;;;;;9.65;7.90;;;21.90;62.00;;;22.05;52.46;97987.94;5009489;28;20064;-57
2022/07/24 05:25:06;;;;;;;8.93;6.97;;;21.90;61.50;;;22.10;52.47;97979.91;5010171;28;20053;-57
2022/07/24 05:27:34;;;;;;;8.35;7.50;;;22.00;61.20;;;22.13;52.31;97984.91;5008558;28;20068;-56
2022/07/24 05:30:05;;;;;;;10.70;7.93;;;22.00;61.20;;;22.16;52.23;97982.56;5009838;28;20054;-55
2022/07/24 05:32:33;;;;;;;10.32;7.72;;;22.00;61.00;;;22.20;51.66;97988.38;5009455;28;20231;-55
2022/07/24 05:35:01;;;;;;;8.57;7.38;;;22.00;60.70;;;22.22;52.12;97984.34;5007007;28;20049;-56
2022/07/24 05:37:29;;;;;;;9.38;8.45;;;22.10;60.60;;;22.23;52.24;97982.47;5007226;28;20376;-55
2022/07/24 05:39:57;;;;;;;9.77;8.88;;;22.10;60.70;;;22.26;51.82;97975.81;5008758;28;20248;-56
2022/07/24 05:42:25;;;;;;;9.50;8.55;;;22.10;61.00;;;22.32;52.01;97980.31;5009254;28;20061;-57
2022/07/24 05:44:53;;;;;;;11.38;9.05;;;22.10;61.20;;;22.36;52.62;97970.66;5009186;28;20050;-57
2022/07/24 05:47:21;;;;;;;10.52;9.50;;;22.30;62.00;;;22.42;52.78;97980.59;5010182;28;20820;-54
2022/07/24 05:49:49;;;;;;;10.50;9.30;;;22.30;62.00;;;22.46;52.72;97976.34;5007968;28;20500;-56
2022/07/24 05:52:17;;;;;;;10.65;9.05;;;22.40;62.00;;;22.52;52.51;97978.16;5008362;28;20054;-57
2022/07/24 05:54:45;;;;;;;9.48;8.45;;;22.50;61.90;;;22.57;52.95;97977.47;5008805;28;20072;-54
2022/07/24 05:57:12;;;;;;;10.82;9.77;;;22.50;62.00;;;22.59;52.91;97976.19;5009406;28;20054;-57
2022/07/24 05:59:40;;;;;;;11.02;9.63;;;22.60;62.50;;;22.64;52.83;97980.09;5008888;28;20050;-57
2022/07/24 06:02:08;;;;;;;10.13;8.27;;;22.60;62.40;;;22.66;53.19;97984.22;5008519;28;20052;-57
2022/07/24 06:04:41;;;;;;;10.13;9.13;;;22.60;62.30;;;22.69;52.77;97981.03;5009901;28;20058;-57
2022/07/24 06:07:10;;;;;;;8.70;7.85;;;22.70;62.30;;;22.75;52.94;97987.44;5008833;28;20041;-53
2022/07/24 06:09:39;;;;;;;10.35;8.43;;;22.70;62.50;;;22.79;53.02;97989.44;5007352;28;20360;-55
2022/07/24 06:12:07;;;;;;;10.38;8.55;;;22.70;62.10;;;22.83;52.67;97986.28;5008947;28;20049;-57
2022/07/24 06:14:35;;;;;;;10.65;9.55;;;22.80;61.50;;;22.86;52.58;97986.66;5008048;28;20812;-54
2022/07/24 06:17:03;;;;;;;9.93;8.93;;;22.80;61.30;;;22.89;52.25;97988.88;5008593;28;20054;-57
2022/07/24 06:19:31;;;;;;;9.38;7.75;;;22.80;60.80;;;22.93;51.90;97994.69;5007813;28;20056;-57
2022/07/24 06:21:59;;;;;;;9.18;8.27;;;22.90;60.40;;;22.96;51.70;97989.63;5008444;28;20056;-56
2022/07/24 06:24:27;;;;;;;9.57;8.20;;;22.90;60.10;;;23.00;51.46;98001.66;5007717;28;20042;-56
2022/07/24 06:26:54;;;;;;;12.65;9.40;;;23.00;59.70;;;23.06;51.21;97994.50;5009019;28;20052;-62
2022/07/24 06:29:40;;;;;;;8.77;7.88;;;23.10;59.50;;;23.10;51.18;97987.53;5007706;28;20054;-62
2022/07/24 06:32:09;;;;;;;9.45;7.78;;;23.10;59.30;;;23.14;51.34;97988.72;5008367;28;20056;-61
2022/07/24 06:34:36;;;;;;;9.50;8.50;;;23.10;59.30;;;23.17;51.09;97982.03;5009181;28;20048;-62
2022/07/24 06:37:04;;;;;;;12.85;8.73;;;23.20;59.00;;;23.19;50.81;97985.34;5005600;28;20069;-62
2022/07/24 06:39:32;;;;;;;9.35;7.68;;;23.20;58.90;;;23.23;50.99;97989.22;5007767;28;20053;-62
2022/07/24 06:42:00;;;;;;;9.10;8.30;;;23.20;58.90;;;23.26;51.15;97986.03;5006867;28;20064;-62
2022/07/24 06:44:29;;;;;;;9.63;8.45;;;23.30;59.10;;;23.28;51.29;97983.91;5007708;28;20049;-61
2022/07/24 06:46:56;;;;;;;9.20;8.32;;;23.30;59.10;;;23.31;51.20;97985.34;5006321;28;20055;-61
2022/07/24 06:49:24;;;;;;;9.57;8.10;;;23.40;59.00;;;23.34;50.96;97985.69;5006871;28;20080;-61
2022/07/24 06:51:52;;;;;;;9.38;8.45;;;23.40;58.80;;;23.40;50.64;97989.38;5005530;28;20063;-61
2022/07/24 06:54:21;;;;;;;8.90;7.97;;;23.50;58.60;;;23.44;50.80;97990.56;5006756;28;20068;-61
2022/07/24 06:56:49;;;;;;;9.18;8.25;;;23.50;58.60;;;23.47;50.94;97990.06;5006936;28;20053;-61
2022/07/24 06:59:19;;;;;;;9.52;8.57;;;23.50;58.50;;;23.50;50.70;97983.34;5006912;28;20054;-61
2022/07/24 07:01:47;;;;;;;9.80;8.80;;;23.50;58.10;;;23.50;50.59;97986.06;5006014;28;20344;-62
2022/07/24 07:04:14;;;;;;;9.15;8.35;;;23.60;58.20;;;23.52;50.89;97984.75;5007143;28;20370;-61
2022/07/24 07:06:43;;;;;;;9.85;8.88;;;23.60;58.20;;;23.51;50.75;97987.69;5006707;28;20062;-61
2022/07/24 07:09:12;;;;;;;10.60;8.32;;;23.60;58.30;;;23.54;50.68;97982.63;5007898;28;20046;-62
2022/07/24 07:11:40;;;;;;;10.15;8.45;;;23.70;58.30;;;23.57;50.61;97984.88;5006308;28;20064;-61
2022/07/24 07:14:08;;;;;;;9.85;8.65;;;23.70;58.20;;;23.64;50.47;97986.66;5007191;28;20252;-61
2022/07/24 07:16:41;;;;;;;11.20;9.07;;;23.70;58.10;;;23.70;50.66;97994.66;5005226;28;20345;-61
2022/07/24 07:19:10;;;;;;;10.30;9.23;;;23.80;58.00;;;23.74;50.68;97989.59;5006838;28;20037;-62
2022/07/24 07:21:38;;;;;;;9.57;8.50;;;23.80;58.10;;;23.81;50.60;97997.63;5005864;28;20053;-62
2022/07/24 07:24:06;;;;;;;7.95;7.15;;;24.00;58.00;;;23.88;50.29;97993.72;5006738;28;20064;-62
2022/07/24 07:26:34;;;;;;;8.70;7.82;;;24.00;57.70;;;23.92;50.68;97996.78;5005484;28;20038;-61
2022/07/24 07:29:02;;;;;;;9.07;8.20;;;24.10;58.10;;;23.95;50.14;97989.00;5005639;28;20064;-62
2022/07/24 07:31:30;;;;;;;9.02;8.02;;;24.10;57.50;;;23.95;50.13;97989.00;5005300;28;20060;-61
2022/07/24 07:33:58;;;;;;;9.75;8.27;;;24.00;57.20;;;23.92;49.95;97994.94;5006041;28;20063;-61
2022/07/24 07:36:27;;;;;;;9.68;8.68;;;24.00;57.40;;;23.96;49.78;97987.94;5006437;28;20046;-61
2022/07/24 07:38:57;;;;;;;8.32;7.53;;;24.10;57.50;;;24.03;49.66;97995.13;5006084;28;20046;-61
2022/07/24 07:41:25;;;;;;;9.20;8.32;;;24.20;57.00;;;24.09;49.48;97996.91;5006500;28;20046;-61
2022/07/24 07:43:53;;;;;;;9.85;8.32;;;24.20;56.50;;;24.14;49.58;97989.66;5005270;28;20516;-62
2022/07/24 07:46:20;;;;;;;9.15;8.18;;;24.30;56.50;;;24.18;49.20;97990.03;5005818;28;20050;-61
2022/07/24 07:48:48;;;;;;;9.30;8.40;;;24.30;56.10;;;24.26;48.87;97989.63;5005178;28;20255;-61
2022/07/24 07:51:16;;;;;;;8.98;7.70;;;24.50;55.60;;;24.30;49.35;97984.53;5004864;28;20052;-62
2022/07/24 07:53:51;;;;;;;9.20;8.30;;;24.50;56.20;;;24.37;49.01;97987.97;5006706;28;20048;-61
2022/07/24 07:56:20;;;;;;;8.68;7.78;;;24.50;55.80;;;24.43;48.71;97989.72;5007130;28;20056;-59
2022/07/24 07:58:49;;;;;;;9.75;8.43;;;24.60;55.70;;;24.48;48.35;97992.50;5006258;28;20046;-56
2022/07/24 08:01:17;;;;;;;8.90;8.13;;;24.70;55.00;;;24.50;48.16;97993.09;5014795;28;20252;-56
2022/07/24 08:03:45;;;;;;;9.35;8.45;;;24.70;54.60;;;24.54;47.78;97994.31;5015596;28;20038;-54
2022/07/24 08:06:13;;;;;;;8.63;7.75;;;24.70;54.20;;;24.56;47.94;97989.44;5014875;28;20048;-54
2022/07/24 08:08:42;;;;;;;9.45;8.50;;;24.70;54.40;;;24.61;47.89;97988.72;5016760;28;20051;-52
2022/07/24 08:11:10;;;;;;;7.63;6.93;;;24.80;54.20;;;24.66;47.68;97991.53;5013981;28;20065;-55
2022/07/24 08:13:38;;;;;;;9.27;8.15;;;24.90;54.30;;;24.68;47.58;97983.94;5016153;28;20045;-57
2022/07/24 08:16:06;;;;;;;9.20;8.18;;;24.90;54.00;;;24.72;47.37;97993.28;5014778;28;20060;-53
2022/07/24 08:18:34;;;;;;;7.68;6.88;;;24.90;53.90;;;24.79;47.40;97989.56;5008190;28;20050;-57
2022/07/24 08:21:02;;;;;;;8.65;7.75;;;24.90;53.50;;;24.80;46.70;97985.78;5004915;28;20337;-54
2022/07/24 08:23:32;;;;;;;8.57;7.68;;;25.00;52.90;;;24.81;46.72;97977.34;5005628;28;20050;-56
2022/07/24 08:26:00;;;;;;;11.00;7.95;;;24.90;52.90;;;24.79;46.22;97974.06;5006977;28;20050;-54
2022/07/24 08:28:27;;;;;;;10.07;8.70;;;24.90;52.10;;;24.81;46.31;97979.25;5005376;28;20049;-56
2022/07/24 08:30:55;;;;;;;8.40;7.60;;;24.90;52.40;;;24.85;46.15;97974.97;5005851;28;20052;-52
2022/07/24 08:33:23;;;;;;;8.25;7.45;;;25.00;52.10;;;24.89;46.19;97973.41;5006059;28;20057;-54
2022/07/24 08:35:51;;;;;;;8.80;7.90;;;25.10;52.00;;;24.94;45.83;97968.06;5006690;28;20057;-54
2022/07/24 08:38:19;;;;;;;8.60;7.50;;;25.20;51.70;;;24.98;45.91;97971.94;5007145;28;20056;-55
2022/07/24 08:40:47;;;;;;;8.23;7.40;;;25.20;51.80;;;25.02;45.72;97978.53;5005564;28;20349;-55
2022/07/24 08:43:15;;;;;;;8.90;7.00;;;25.20;51.30;;;25.05;45.58;97977.25;5006203;28;20344;-56
2022/07/24 08:45:46;;;;;;;8.45;7.55;;;25.20;51.10;;;25.02;45.49;97978.53;5006594;28;20046;-57
2022/07/24 08:48:15;;;;;;;8.95;7.95;;;25.30;50.80;;;25.10;45.57;97969.13;5007926;28;20046;-55
2022/07/24 08:50:43;;;;;;;8.25;7.32;;;25.40;50.90;;;25.17;45.29;97972.53;5008046;28;20085;-54
2022/07/24 08:53:11;;;;;;;9.18;7.88;;;25.40;50.90;;;25.20;45.16;97973.94;5009392;28;20288;-55
2022/07/24 08:55:39;;;;;;;11.10;7.60;;;25.40;50.30;;;25.20;45.11;97971.19;5010177;28;20065;-56
2022/07/24 08:58:07;;;;;;;8.82;8.02;;;25.40;49.80;;;25.23;45.01;97981.66;5010088;28;20050;-54
2022/07/24 09:00:35;;;;;;;8.70;7.72;;;25.40;50.60;;;25.22;44.41;97971.78;5009117;28;20058;-56
2022/07/24 09:03:03;;;;;;;7.95;7.15;;;25.40;49.70;;;25.27;44.21;97971.91;5010100;28;20242;-56
2022/07/24 09:05:34;;;;;;;10.05;7.60;;;25.50;49.50;;;25.31;44.80;97968.41;5009397;28;20049;-55
2022/07/24 09:08:11;;;;;;;7.75;6.82;;;25.50;49.90;;;25.38;44.81;97976.44;5009806;28;20072;-55
2022/07/24 09:10:39;;;;;;;8.85;7.95;;;25.60;49.80;;;25.43;43.94;97978.41;5009688;28;20049;-56
2022/07/24 09:13:18;;;;;;;8.48;7.68;;;25.70;48.90;;;25.47;43.84;97977.66;5008513;28;20059;-56
2022/07/24 09:15:49;;;;;;;9.05;8.13;;;25.70;48.10;;;25.49;43.85;97980.97;5009625;28;20088;-57
2022/07/24 09:18:33;;;;;;;8.45;7.65;;;25.80;48.70;;;25.46;43.09;97976.00;5009448;28;20060;-53
2022/07/24 09:21:13;;;;;;;;;;;25.80;47.50;;;25.45;42.94;97976.25;5009664;28;20046;-55
2022/07/24 09:23:43;;;;;;;7.70;7.00;;;25.80;47.50;;;25.58;43.37;97972.38;5008624;28;19923;-53
2022/07/24 09:26:11;;;;;;;8.77;7.78;;;25.80;48.30;;;25.61;43.53;97975.44;5009566;28;20057;-55
2022/07/24 09:28:55;;;;;;;8.65;7.82;;;25.80;48.30;;;25.68;43.70;97973.31;5007700;28;20056;-55
2022/07/24 09:31:23;;;;;;;8.25;7.45;;;25.90;47.60;;;25.76;43.26;97973.97;5008047;28;20371;-53
2022/07/24 09:33:51;;;;;;;9.15;6.88;;;26.00;48.20;;;25.78;42.41;97967.19;5007782;28;20073;-56
2022/07/24 09:36:19;;;;;;;7.57;6.88;;;26.00;46.90;;;25.79;41.54;97971.59;5009725;28;20048;-55
2022/07/24 09:38:51;;;;;;;7.13;6.47;;;26.20;45.50;;;25.88;41.59;97974.69;5008479;28;20068;-55
2022/07/24 09:41:24;;;;;;;7.20;6.60;;;26.30;46.30;;;25.96;41.85;97968.84;5009416;28;20046;-51
2022/07/24 09:44:03;;;;;;;7.25;6.50;;;26.40;45.60;;;26.03;41.26;97963.19;5008743;28;20348;-56
2022/07/24 09:47:11;;;;;;;9.50;6.97;;;26.40;44.90;;;26.07;40.99;97965.16;5009718;28;20054;-52
2022/07/24 09:49:40;;;;;;;8.77;6.53;;;26.40;43.80;;;26.08;40.49;97961.34;5008460;28;20084;-52
2022/07/24 09:52:16;;;;;;;6.88;6.28;;;26.40;44.60;;;26.15;40.60;97946.69;5009889;28;20061;-56
2022/07/24 09:54:48;;;;;;;7.65;6.10;;;26.50;44.50;;;26.26;40.81;97952.00;5008588;28;20336;-55
2022/07/24 09:57:37;;;;;;;7.15;6.38;;;26.60;44.40;;;26.30;40.36;97955.06;5008899;28;20062;-52
2022/07/24 10:00:07;;;;;;;6.97;6.30;;;26.70;42.40;;;26.39;40.48;97955.44;5007392;28;20046;-51
2022/07/24 10:02:36;;;;;;;6.85;6.13;;;26.80;44.00;;;26.47;40.20;97953.06;5008828;28;20046;-55
2022/07/24 10:05:06;;;;;;;7.70;6.53;;;26.80;43.80;;;26.56;40.03;97952.59;4999923;28;20045;-52
2022/07/24 10:07:35;;;;;;;7.47;6.88;;;26.90;43.50;;;26.65;39.13;97954.63;5006354;28;20061;-55
2022/07/24 10:10:03;;;;;;;7.88;7.07;;;27.00;43.30;;;26.72;39.42;97949.00;5008375;28;20069;-53
2022/07/24 10:12:32;;;;;;;7.93;7.13;;;27.10;43.00;;;26.74;38.79;97952.28;5007082;28;20046;-52
2022/07/24 10:15:02;;;;;;;8.02;7.22;;;27.20;42.30;;;26.81;39.25;97946.59;5008883;28;20042;-51
2022/07/24 10:18:00;;;;;;;9.85;6.80;;;27.20;42.60;;;26.83;38.92;97937.09;5008290;28;20252;-54
2022/07/24 10:20:43;;;;;;;7.82;6.93;;;27.30;42.10;;;26.91;39.39;97941.25;5008755;28;20054;-50
2022/07/24 10:23:28;;;;;;;8.13;7.32;;;27.30;42.20;;;26.90;37.60;97945.03;5008182;28;20409;-54
2022/07/24 10:26:05;;;;;;;9.07;8.27;;;27.30;40.60;;;26.95;38.47;97939.63;5008668;28;20071;-50